Wetterstation Rottenburg Seebronn / 442m msl / http://mut-lambrecht.de
LETZTE AKTUALISIERUNG UM: 00:05 DATUM: Januar 21 2023, time of next update: 00:10
Aktuelles WetterClear/Night Aktuelle Temperatur -4.6°C (23.7°F), Apparent temp -6.9°C
Höchsttemperatur (seit Mitternacht)-4.5°C um: 00:00 Tiefsttemperatur (seit Mitternacht)-4.6°C um: 00:01
Windgeschwindigkeit (10 Minuten )0.0 kmh (0.0 kts) Windrichtung (Dir) (10 Minuten )S (180°)
Windchill Temperatur -4.6°C Windspitzen (letzte Std)7.5 kmh (4.1 kts) um: 23:17
Windspitzen (seit Mitternacht)0.0 kmh (0.0 kts) um: 22:41 Höchstes Windmittel / Minute (seit Mitternacht)0.0 kmh (0.0 kts) um: 22:39
Regenmenge (letzte Std)0.0 mm Regenmenge (seit Mitternacht)0.0 mm (0.00 in.)---
Regenmenge diesen Monat 97.0 mm (3.82 in.) Regenmenge seit Jahresbeginn 97.0 mm (3.82 in.)
Höchste Regenmenge pro Minute (letzte Std)0.0 mm/min Höchste Regenmenge pro Stunde (letzte 6 Std)4.8 mm/stunde
Regenmenge Gestern 0.0 mm Taupunkt -7.4°C (Wet Bulb :-5.4°C )
Luftfeuchtigkeit 81 %, Humidex -8.2°C Aktueller Luftdruck (auf Meereshöhe bezogen)1015.9 hPa
Luftdrucktendenz +0.3 hPa (letzte Std) Trend (letzte 1 Std)gleichbleibend
Luftdrucktendenz (letzte 12 Std)+0.5 hPa Luftdrucktendenz (letzte 6 Std)-0.7 hPa


Grafische Darstellung der letzten 24 Stunden.
Grafische Darstellung der letzten 48 Stunden.
Grafische Darstellung der letzten 72 Stunden.
Grafische Darstellung der letzten month.


Weather report/warning/Metars

Stuttgart-Echterdingen, Germany (EDDS) 48-41N 009-13E 391M
Jan 20, 2023 - 05:50 PM EST / 2023.01.20 2250 UTC
Wind: from the E (090 degrees) at 2 MPH (2 KT):0
Visibility: greater than 7 mile(s):0
Temperature: 24 F (-4 C)
Dew Point: 23 F (-5 C)
Relative Humidity: 92%
Pressure (altimeter): 30.09 in. Hg (1019 hPa)
ob: EDDS 202250Z AUTO 09002KT CAVOK M04/M05 Q1019
cycle: 23
Karlsruhe, Baden Wurttemberg, Germany (EDSB) 48-46-43N 008-04-47E
Jan 20, 2023 - 05:50 PM EST / 2023.01.20 2250 UTC
Wind: from the S (180 degrees) at 9 MPH (8 KT) (direction variable):0
Visibility: greater than 7 mile(s):0
Sky conditions: overcast
Temperature: 35 F (2 C)
Windchill: 28 F (-2 C):1
Dew Point: 26 F (-3 C)
Relative Humidity: 69%
Pressure (altimeter): 30.12 in. Hg (1020 hPa)
ob: EDSB 202250Z AUTO 18008KT 140V220 9999 SCT042/// OVC066/// 02/M03 Q1020
cycle: 23
Lahr, CAN-AFB, Germany (EDTL) 48-22-09N 007-49-40E
Jan 20, 2023 - 05:50 PM EST / 2023.01.20 2250 UTC
Wind: from the S (170 degrees) at 8 MPH (7 KT):0
Visibility: greater than 7 mile(s):0
Sky conditions: partly cloudy
Temperature: 33 F (1 C)
Windchill: 26 F (-3 C):1
Dew Point: 24 F (-4 C)
Relative Humidity: 69%
Pressure (altimeter): 30.12 in. Hg (1020 hPa)
ob: EDTL 202250Z AUTO 17007KT 9999 // FEW040/// SCT052/// 01/M04 Q1020
cycle: 23
Laupheim, Germany (ETHL) 48-13N 009-55E 550M
Jan 20, 2023 - 05:20 PM EST / 2023.01.20 2220 UTC
Wind: from the SW (230 degrees) at 3 MPH (3 KT):0
Visibility: less than 1 mile:0
Temperature: 23 F (-5 C)
Dew Point: 23 F (-5 C)
Relative Humidity: 100%
Pressure (altimeter): 30.09 in. Hg (1019 hPa)
ob: ETHL 202220Z AUTO 23003KT 1200 // ////// M05/M05 Q1019 ///
cycle: 22


Klicken Sie hier, um zu den Durchschnitts-, Extrem-, Monats- oder Tageswerten zu gelangen


Die Wetterdaten werden alle 5 Minuten aktualisiert.
Die 3 stündige Echtzeitgrafik wird jede Minute aktualisiert.
Bei der 3 stündige Echtzeitgrafik sind derzeit die Skalenfarben von Winddurchschnitt u. Windböen vertauscht. (Softwarebug)

Drücken Sie gegebenenfalls auf "Aktualisieren" in Ihrem Browser, um die aktuellsten Daten zu erhalten.